createdAt,value
2023-03-23T15:58:34.045Z,15.46
2023-03-23T16:01:08.326Z,15.54
2023-03-23T16:03:42.628Z,15.77
2023-03-23T16:06:24.535Z,15.49
2023-03-23T16:08:55.344Z,15.44
2023-03-23T16:11:26.268Z,15.33
2023-03-23T16:13:57.297Z,14.85
2023-03-23T16:16:29.308Z,14.55
2023-03-23T16:18:58.518Z,14.33
2023-03-23T16:21:28.000Z,14.12
2023-03-23T16:23:58.286Z,13.95
2023-03-23T16:26:27.481Z,13.84
2023-03-23T16:29:09.895Z,13.71
2023-03-23T16:31:42.387Z,13.66
2023-03-23T16:34:11.766Z,13.51
2023-03-23T16:36:41.436Z,13.31
2023-03-23T16:39:12.506Z,13.22
2023-03-23T16:41:42.542Z,13.01
2023-03-23T16:44:13.986Z,12.90
2023-03-23T16:46:43.174Z,12.98
2023-03-23T16:49:12.470Z,12.88
2023-03-23T16:51:43.195Z,12.75
2023-03-23T16:54:12.635Z,12.70
2023-03-23T16:56:46.232Z,12.71
2023-03-23T16:59:17.176Z,12.71
2023-03-23T17:01:46.947Z,12.72
2023-03-23T17:04:16.315Z,12.32
2023-03-23T17:06:46.399Z,11.93
2023-03-23T17:09:15.932Z,11.78
2023-03-23T17:11:45.823Z,11.01
2023-03-23T17:14:16.994Z,11.13
2023-03-23T17:16:46.538Z,11.35
2023-03-23T17:19:16.407Z,11.50
2023-03-23T17:21:45.814Z,11.55
2023-03-23T17:24:15.048Z,11.56
2023-03-23T17:26:44.587Z,11.51
2023-03-23T17:29:13.817Z,11.44
2023-03-23T17:31:44.811Z,11.46
2023-03-23T17:34:18.735Z,11.47
2023-03-23T17:36:49.008Z,11.42
2023-03-23T17:39:18.483Z,11.39
2023-03-23T17:41:47.977Z,11.51
2023-03-23T17:44:17.185Z,11.63
2023-03-23T17:46:48.447Z,11.53
2023-03-23T17:49:18.141Z,11.36
2023-03-23T17:51:47.430Z,10.84
2023-03-23T17:54:17.021Z,10.84
2023-03-23T17:56:46.353Z,10.98
2023-03-23T17:59:16.469Z,11.13
2023-03-23T18:01:47.947Z,11.12
2023-03-23T18:04:19.980Z,10.78
2023-03-23T18:06:50.527Z,10.77
2023-03-23T18:09:20.113Z,10.64
2023-03-23T18:11:49.978Z,10.74
2023-03-23T18:14:19.728Z,10.52
2023-03-23T18:16:50.512Z,10.29
2023-03-23T18:19:21.950Z,10.41
2023-03-23T18:21:51.139Z,10.20
2023-03-23T18:24:21.034Z,9.83
2023-03-23T18:26:50.319Z,9.84
2023-03-23T18:29:20.298Z,9.99
2023-03-23T18:31:50.757Z,9.97
2023-03-23T18:34:21.603Z,9.72
2023-03-23T18:36:51.204Z,9.58
2023-03-23T18:39:20.622Z,10.26
2023-03-23T18:41:50.058Z,11.20
2023-03-23T18:44:19.587Z,11.48
2023-03-23T18:46:49.041Z,11.99
2023-03-23T18:49:18.363Z,11.70
2023-03-23T18:51:49.129Z,10.80
2023-03-23T18:54:18.982Z,10.12
2023-03-23T18:56:48.254Z,9.76
2023-03-23T18:59:17.974Z,9.68
2023-03-23T19:01:47.223Z,9.43
2023-03-23T19:04:16.954Z,9.87
2023-03-23T19:06:46.502Z,9.68
2023-03-23T19:09:17.297Z,9.60
2023-03-23T19:11:47.471Z,9.70
2023-03-23T19:14:18.147Z,9.66
2023-03-23T19:16:47.495Z,9.51
2023-03-23T19:19:16.937Z,9.37
2023-03-23T19:21:47.283Z,9.19
2023-03-23T19:24:18.852Z,9.12
2023-03-23T19:26:49.039Z,8.88
2023-03-23T19:31:52.866Z,8.96
2023-03-23T19:34:24.089Z,8.87
2023-03-23T19:36:59.650Z,8.74
2023-03-23T19:39:36.952Z,8.77
2023-03-23T19:42:07.183Z,8.57
2023-03-23T19:44:37.845Z,8.75
2023-03-23T19:47:07.522Z,8.61
2023-03-23T19:49:37.251Z,8.67
2023-03-23T19:52:12.534Z,8.60
2023-03-23T19:54:43.845Z,8.61
2023-03-23T19:57:13.258Z,8.77
2023-03-23T19:59:42.988Z,8.54
2023-03-23T20:02:13.584Z,8.50
2023-03-23T20:04:43.694Z,8.17
2023-03-23T20:07:14.869Z,8.18
2023-03-23T20:09:53.349Z,8.22
2023-03-23T20:12:30.311Z,8.23
2023-03-23T20:15:15.354Z,8.16
2023-03-23T20:17:57.800Z,8.15
2023-03-23T20:20:28.119Z,7.95
2023-03-23T20:22:59.059Z,8.11
2023-03-23T20:25:30.957Z,8.05
2023-03-23T20:28:00.766Z,8.10
2023-03-23T20:30:30.390Z,7.77
2023-03-23T20:33:01.010Z,7.82
2023-03-23T20:35:31.144Z,7.76
2023-03-23T20:38:01.151Z,7.75
2023-03-23T20:40:32.820Z,7.66
2023-03-23T20:43:04.031Z,7.57
2023-03-23T20:45:33.494Z,7.66
2023-03-23T20:48:02.849Z,7.59
2023-03-23T20:50:32.421Z,7.49
2023-03-23T20:53:02.209Z,7.65
2023-03-23T20:55:33.299Z,7.73
2023-03-23T20:58:02.783Z,7.64
2023-03-23T21:00:32.207Z,7.45
2023-03-23T21:03:01.383Z,6.62
2023-03-23T21:05:30.916Z,6.89
2023-03-23T21:08:00.120Z,6.69
2023-03-23T21:10:30.738Z,6.78
2023-03-23T21:13:02.380Z,6.71
2023-03-23T21:15:34.047Z,6.63
2023-03-23T21:18:04.449Z,6.74
2023-03-23T21:20:34.566Z,6.70
2023-03-23T21:23:06.595Z,7.08
2023-03-23T21:25:38.217Z,6.99
2023-03-23T21:28:09.731Z,6.86
2023-03-23T21:30:42.000Z,6.89
2023-03-23T21:33:11.779Z,6.92
2023-03-23T21:35:41.822Z,7.02
2023-03-23T21:38:14.509Z,6.87
2023-03-23T21:40:44.287Z,6.82
2023-03-23T21:43:17.114Z,7.22
2023-03-23T21:45:47.165Z,7.00
2023-03-23T21:48:16.798Z,6.87
2023-03-23T21:50:46.314Z,6.70
2023-03-23T21:53:18.515Z,6.61
2023-03-23T21:55:51.670Z,6.81
2023-03-23T21:58:24.631Z,6.87
2023-03-23T22:00:56.581Z,6.78
2023-03-23T22:03:27.246Z,6.65
2023-03-23T22:05:56.690Z,6.53
2023-03-23T22:08:28.729Z,6.52
2023-03-23T22:11:03.185Z,6.40
2023-03-23T22:13:36.079Z,6.34
2023-03-23T22:16:08.520Z,6.02
2023-03-23T22:18:38.384Z,6.13
2023-03-23T22:21:08.966Z,6.09
2023-03-23T22:23:38.264Z,6.06
2023-03-23T22:26:08.786Z,6.13
2023-03-23T22:28:40.537Z,6.00
2023-03-23T22:31:13.441Z,5.93
2023-03-23T22:33:42.757Z,6.06
2023-03-23T22:36:12.842Z,6.02
2023-03-23T22:38:44.566Z,5.96
2023-03-23T22:41:18.778Z,5.95
2023-03-23T22:43:50.772Z,5.83
2023-03-23T22:46:20.364Z,5.78
2023-03-23T22:48:49.740Z,5.82
2023-03-23T22:51:20.833Z,5.46
2023-03-23T22:53:50.753Z,5.59
2023-03-23T22:56:20.699Z,5.59
2023-03-23T22:58:52.268Z,5.68
2023-03-23T23:01:23.667Z,5.60
2023-03-23T23:03:53.047Z,5.58
2023-03-23T23:06:22.754Z,5.64
2023-03-23T23:08:53.064Z,5.59
2023-03-23T23:11:24.387Z,5.47
2023-03-23T23:13:55.804Z,5.42
2023-03-23T23:16:27.780Z,5.33
2023-03-23T23:18:57.812Z,5.12
2023-03-23T23:21:29.171Z,5.25
2023-03-23T23:23:59.046Z,5.25
2023-03-23T23:26:28.336Z,5.18
2023-03-23T23:28:59.421Z,5.15
2023-03-23T23:31:33.708Z,5.24
2023-03-23T23:34:22.399Z,5.23
2023-03-23T23:36:52.207Z,5.28
2023-03-23T23:39:21.660Z,5.26
2023-03-23T23:41:51.361Z,5.47
2023-03-23T23:44:22.255Z,5.49
2023-03-23T23:46:51.890Z,5.43
2023-03-23T23:49:23.185Z,5.32
2023-03-23T23:51:52.546Z,5.23
2023-03-23T23:54:30.250Z,5.12
2023-03-23T23:57:00.017Z,5.01
2023-03-23T23:59:32.983Z,5.01
